createdAt,value
2017-09-28T00:00:22.074Z,1011.17
2017-09-28T00:01:02.548Z,1011.17
2017-09-28T00:02:56.426Z,1011.18
2017-09-28T00:03:36.705Z,1011.22
2017-09-28T00:04:17.142Z,1011.16
2017-09-28T00:04:57.604Z,1011.19
2017-09-28T00:05:38.046Z,1011.18
2017-09-28T00:06:18.558Z,1011.2
2017-09-28T00:06:58.959Z,1011.2
2017-09-28T00:07:39.457Z,1011.21
2017-09-28T00:08:19.889Z,1011.22
2017-09-28T00:09:00.337Z,1011.21
2017-09-28T00:09:40.753Z,1011.23
2017-09-28T00:10:21.172Z,1011.25
2017-09-28T00:11:01.626Z,1011.21
2017-09-28T00:11:42.135Z,1011.21
2017-09-28T00:12:22.537Z,1011.21
2017-09-28T00:13:02.972Z,1011.24
2017-09-28T00:13:43.471Z,1011.22
2017-09-28T00:14:23.911Z,1011.22
2017-09-28T00:15:04.332Z,1011.24
2017-09-28T00:15:44.818Z,1011.21
2017-09-28T00:16:25.280Z,1011.24
2017-09-28T00:17:05.742Z,1011.25
2017-09-28T00:17:46.191Z,1011.26
2017-09-28T00:18:26.613Z,1011.24
2017-09-28T00:19:07.154Z,1011.27
2017-09-28T00:19:47.565Z,1011.21
2017-09-28T00:20:28.001Z,1011.25
2017-09-28T00:21:08.456Z,1011.23
2017-09-28T00:21:48.918Z,1011.22
2017-09-28T00:22:29.361Z,1011.25
2017-09-28T00:23:09.840Z,1011.23
2017-09-28T00:23:50.349Z,1011.21
2017-09-28T00:24:30.770Z,1011.23
2017-09-28T00:25:11.234Z,1011.23
2017-09-28T00:25:51.634Z,1011.22
2017-09-28T00:26:32.135Z,1011.22
2017-09-28T00:27:12.615Z,1011.23
2017-09-28T00:27:53.047Z,1011.21
2017-09-28T00:28:33.511Z,1011.2
2017-09-28T00:29:13.951Z,1011.21
2017-09-28T00:29:54.386Z,1011.24
2017-09-28T00:30:34.832Z,1011.2
2017-09-28T00:31:15.300Z,1011.21
2017-09-28T00:31:55.731Z,1011.18
2017-09-28T00:32:36.187Z,1011.23
2017-09-28T00:33:16.652Z,1011.17
2017-09-28T00:33:57.099Z,1011.19
2017-09-28T00:34:37.535Z,1011.22
2017-09-28T00:35:17.987Z,1011.2
2017-09-28T00:35:58.534Z,1011.21
2017-09-28T00:36:38.886Z,1011.22
2017-09-28T00:37:19.356Z,1011.2
2017-09-28T00:37:59.809Z,1011.26
2017-09-28T00:38:40.281Z,1011.21
2017-09-28T00:39:20.716Z,1011.2
2017-09-28T00:40:01.178Z,1011.23
2017-09-28T00:40:41.619Z,1011.19
2017-09-28T00:41:22.024Z,1011.23
2017-09-28T00:42:02.534Z,1011.18
2017-09-28T00:42:43.025Z,1011.22
2017-09-28T00:43:23.479Z,1011.24
2017-09-28T00:44:03.923Z,1011.21
2017-09-28T00:44:44.404Z,1011.21
2017-09-28T00:45:24.814Z,1011.23
2017-09-28T00:46:05.309Z,1011.19
2017-09-28T00:46:45.762Z,1011.24
2017-09-28T00:47:26.152Z,1011.24
2017-09-28T00:48:06.667Z,1011.22
2017-09-28T00:48:47.238Z,1011.22
2017-09-28T00:49:27.680Z,1011.2
2017-09-28T00:50:08.079Z,1011.23
2017-09-28T00:50:48.541Z,1011.23
2017-09-28T00:51:29.018Z,1011.23
2017-09-28T00:52:09.448Z,1011.23
2017-09-28T00:52:49.926Z,1011.23
2017-09-28T00:53:30.345Z,1011.22
2017-09-28T00:54:10.768Z,1011.22
2017-09-28T00:54:51.256Z,1011.22
2017-09-28T00:55:31.728Z,1011.21
2017-09-28T00:56:12.233Z,1011.18
2017-09-28T00:56:52.603Z,1011.22
2017-09-28T00:57:33.074Z,1011.19
2017-09-28T00:58:13.566Z,1011.22
2017-09-28T00:58:54.025Z,1011.22
2017-09-28T00:59:34.420Z,1011.22
2017-09-28T01:00:14.937Z,1011.21
2017-09-28T01:00:55.376Z,1011.23
2017-09-28T01:01:35.802Z,1011.24
2017-09-28T01:02:16.299Z,1011.22
2017-09-28T01:02:56.697Z,1011.24
2017-09-28T01:03:37.111Z,1011.23
2017-09-28T01:04:17.572Z,1011.25
2017-09-28T01:04:58.082Z,1011.23
2017-09-28T01:05:38.489Z,1011.24
2017-09-28T01:06:19.040Z,1011.24
2017-09-28T01:06:59.477Z,1011.23
2017-09-28T01:07:39.887Z,1011.23
2017-09-28T01:08:20.402Z,1011.21
2017-09-28T01:09:00.878Z,1011.18
2017-09-28T01:09:41.364Z,1011.21
2017-09-28T01:10:21.893Z,1011.17
2017-09-28T01:11:02.359Z,1011.14
2017-09-28T01:11:42.835Z,1011.17
2017-09-28T01:12:23.298Z,1011.16
2017-09-28T01:13:03.777Z,1011.17
2017-09-28T01:13:44.187Z,1011.21
2017-09-28T01:14:24.658Z,1011.17
2017-09-28T01:15:05.219Z,1011.18
2017-09-28T01:15:45.663Z,1011.21
2017-09-28T01:16:26.158Z,1011.21
2017-09-28T01:17:06.637Z,1011.22
2017-09-28T01:17:47.158Z,1011.2
2017-09-28T01:18:27.571Z,1011.23
2017-09-28T01:19:08.036Z,1011.23
2017-09-28T01:19:48.500Z,1011.19
2017-09-28T01:20:28.969Z,1011.2
2017-09-28T01:21:09.404Z,1011.21
2017-09-28T01:21:49.814Z,1011.19
2017-09-28T01:22:30.264Z,1011.19
2017-09-28T01:23:10.785Z,1011.19
2017-09-28T01:23:51.244Z,1011.19
2017-09-28T01:24:31.696Z,1011.16
2017-09-28T01:25:12.345Z,1011.15
2017-09-28T01:25:52.846Z,1011.17
2017-09-28T01:26:33.273Z,1011.15
2017-09-28T01:27:13.839Z,1011.17
2017-09-28T01:27:54.190Z,1011.15
2017-09-28T01:28:34.604Z,1011.14
2017-09-28T01:29:15.053Z,1011.12
2017-09-28T01:29:55.495Z,1011.17
2017-09-28T01:30:35.914Z,1011.18
2017-09-28T01:31:16.465Z,1011.18
2017-09-28T01:31:56.920Z,1011.16
2017-09-28T01:32:37.352Z,1011.17
2017-09-28T01:33:17.853Z,1011.16
2017-09-28T01:33:58.318Z,1011.12
2017-09-28T01:34:38.761Z,1011.14
2017-09-28T01:35:19.201Z,1011.12
2017-09-28T01:35:59.673Z,1011.14
2017-09-28T01:36:40.101Z,1011.13
2017-09-28T01:37:20.625Z,1011.11
2017-09-28T01:38:00.976Z,1011.16
2017-09-28T01:38:41.448Z,1011.13
2017-09-28T01:39:21.876Z,1011.14
2017-09-28T01:40:02.316Z,1011.16
2017-09-28T01:40:42.773Z,1011.15
2017-09-28T01:41:23.240Z,1011.17
2017-09-28T01:42:03.656Z,1011.21
2017-09-28T01:42:44.107Z,1011.21
2017-09-28T01:43:24.563Z,1011.23
2017-09-28T01:44:05.080Z,1011.24
2017-09-28T01:44:45.520Z,1011.26
2017-09-28T01:45:25.937Z,1011.23
2017-09-28T01:46:06.369Z,1011.22
2017-09-28T01:46:46.843Z,1011.21
2017-09-28T01:47:27.275Z,1011.22
2017-09-28T01:48:07.814Z,1011.22
2017-09-28T01:48:48.331Z,1011.18
2017-09-28T01:49:28.827Z,1011.14
2017-09-28T01:50:09.240Z,1011.15
2017-09-28T01:50:49.715Z,1011.15
2017-09-28T01:51:30.159Z,1011.09
2017-09-28T01:52:10.617Z,1011.13
2017-09-28T01:52:51.135Z,1011.14
2017-09-28T01:53:31.639Z,1011.13
2017-09-28T01:54:12.038Z,1011.15
2017-09-28T01:54:52.499Z,1011.15
2017-09-28T01:55:32.910Z,1011.11
2017-09-28T01:56:13.324Z,1011.14
2017-09-28T01:56:53.832Z,1011.15
2017-09-28T01:57:34.277Z,1011.16
2017-09-28T01:58:14.728Z,1011.11
2017-09-28T01:58:55.178Z,1011.14
2017-09-28T01:59:35.619Z,1011.12
2017-09-28T02:00:16.062Z,1011.13
2017-09-28T02:00:57.140Z,1011.12
2017-09-28T02:01:36.932Z,1011.11
2017-09-28T02:02:17.451Z,1011.11
2017-09-28T02:02:57.853Z,1011.13
2017-09-28T02:03:38.312Z,1011.15
2017-09-28T02:04:18.749Z,1011.18
2017-09-28T02:04:59.209Z,1011.17
2017-09-28T02:05:39.704Z,1011.2
2017-09-28T02:06:20.123Z,1011.17
2017-09-28T02:07:00.565Z,1011.19
2017-09-28T02:07:41.098Z,1011.21
2017-09-28T02:08:21.490Z,1011.21
2017-09-28T02:09:01.892Z,1011.2
2017-09-28T02:09:42.353Z,1011.22
2017-09-28T02:10:22.817Z,1011.26
2017-09-28T02:11:03.249Z,1011.17
2017-09-28T02:11:43.734Z,1011.21
2017-09-28T02:12:24.216Z,1011.2
2017-09-28T02:13:04.619Z,1011.2
2017-09-28T02:13:45.070Z,1011.2
2017-09-28T02:14:25.515Z,1011.19
2017-09-28T02:15:06.010Z,1011.22
2017-09-28T02:15:46.420Z,1011.21
2017-09-28T02:16:26.903Z,1011.24
2017-09-28T02:17:07.424Z,1011.21
2017-09-28T02:17:47.769Z,1011.23
2017-09-28T02:18:28.223Z,1011.25
2017-09-28T02:19:08.694Z,1011.23
2017-09-28T02:19:49.087Z,1011.28
2017-09-28T02:20:29.549Z,1011.25
2017-09-28T02:21:10.025Z,1011.26
2017-09-28T02:21:50.466Z,1011.26
2017-09-28T02:22:30.951Z,1011.24
2017-09-28T02:23:11.362Z,1011.26
2017-09-28T02:23:51.790Z,1011.27
2017-09-28T02:24:32.241Z,1011.24
2017-09-28T02:25:12.693Z,1011.27
2017-09-28T02:25:53.106Z,1011.27
2017-09-28T02:26:33.569Z,1011.24
2017-09-28T02:27:13.929Z,1011.24
2017-09-28T02:27:54.380Z,1011.24
2017-09-28T02:28:34.849Z,1011.26
2017-09-28T02:29:15.334Z,1011.25
2017-09-28T02:29:55.753Z,1011.3
2017-09-28T02:30:36.205Z,1011.28
2017-09-28T02:31:16.639Z,1011.28
2017-09-28T02:31:57.109Z,1011.25
2017-09-28T02:32:37.556Z,1011.28
2017-09-28T02:33:18.005Z,1011.27
2017-09-28T02:33:58.452Z,1011.26
2017-09-28T02:34:38.903Z,1011.24
2017-09-28T02:35:19.392Z,1011.22
2017-09-28T02:35:59.848Z,1011.23
2017-09-28T02:36:40.364Z,1011.22
2017-09-28T02:37:20.801Z,1011.23
2017-09-28T02:38:01.208Z,1011.28
2017-09-28T02:38:41.702Z,1011.29
2017-09-28T02:39:22.181Z,1011.26
2017-09-28T02:40:02.604Z,1011.25
2017-09-28T02:40:43.074Z,1011.28
2017-09-28T02:41:23.512Z,1011.27
2017-09-28T02:42:03.897Z,1011.27
2017-09-28T02:42:44.399Z,1011.25
2017-09-28T02:43:24.789Z,1011.29
2017-09-28T02:44:05.248Z,1011.31
2017-09-28T02:44:45.728Z,1011.29
2017-09-28T02:45:26.168Z,1011.31
2017-09-28T02:46:06.593Z,1011.32
2017-09-28T02:46:47.012Z,1011.32
2017-09-28T02:47:27.447Z,1011.37
2017-09-28T02:48:07.925Z,1011.34
2017-09-28T02:48:48.364Z,1011.37
2017-09-28T02:49:28.800Z,1011.36
2017-09-28T02:50:09.231Z,1011.36
2017-09-28T02:50:49.708Z,1011.37
2017-09-28T02:51:30.140Z,1011.35
2017-09-28T02:52:10.730Z,1011.41
2017-09-28T02:52:51.190Z,1011.39
2017-09-28T02:53:31.623Z,1011.43
2017-09-28T02:54:12.040Z,1011.39
2017-09-28T02:54:52.519Z,1011.37
2017-09-28T02:55:32.959Z,1011.42
2017-09-28T02:56:13.479Z,1011.45
2017-09-28T02:56:53.878Z,1011.44
2017-09-28T02:57:34.323Z,1011.4
2017-09-28T02:58:14.755Z,1011.44
2017-09-28T02:58:55.213Z,1011.46
2017-09-28T02:59:35.714Z,1011.46
2017-09-28T03:00:16.241Z,1011.45
2017-09-28T03:00:56.612Z,1011.45
2017-09-28T03:01:37.031Z,1011.43
2017-09-28T03:02:17.494Z,1011.43
2017-09-28T03:02:57.999Z,1011.44
2017-09-28T03:03:38.413Z,1011.42
2017-09-28T03:04:18.872Z,1011.43
2017-09-28T03:04:59.338Z,1011.44
2017-09-28T03:05:39.786Z,1011.48
2017-09-28T03:06:20.227Z,1011.48
2017-09-28T03:07:00.649Z,1011.46
2017-09-28T03:07:41.129Z,1011.46
2017-09-28T03:08:21.488Z,1011.47
2017-09-28T03:09:01.940Z,1011.48
2017-09-28T03:09:42.394Z,1011.43
2017-09-28T03:10:22.832Z,1011.5
2017-09-28T03:11:03.246Z,1011.47
2017-09-28T03:11:43.734Z,1011.47
2017-09-28T03:12:24.148Z,1011.48
2017-09-28T03:13:04.601Z,1011.48
2017-09-28T03:13:45.062Z,1011.55
2017-09-28T03:14:25.559Z,1011.53
2017-09-28T03:15:05.971Z,1011.56
2017-09-28T03:15:46.454Z,1011.54
2017-09-28T03:17:44.248Z,1011.62
2017-09-28T03:18:24.750Z,1011.59
2017-09-28T03:19:05.211Z,1011.65
2017-09-28T03:19:45.711Z,1011.61
2017-09-28T03:20:26.166Z,1011.6
2017-09-28T03:21:06.677Z,1011.63
2017-09-28T03:21:47.141Z,1011.63
2017-09-28T03:22:27.607Z,1011.64
2017-09-28T03:23:08.093Z,1011.61
2017-09-28T03:23:48.577Z,1011.62
2017-09-28T03:24:29.055Z,1011.63
2017-09-28T03:25:09.553Z,1011.63
2017-09-28T03:25:50.044Z,1011.65
2017-09-28T03:26:30.516Z,1011.63
2017-09-28T03:27:11.044Z,1011.62
2017-09-28T03:27:51.483Z,1011.66
2017-09-28T03:28:31.973Z,1011.66
2017-09-28T03:29:12.438Z,1011.64
2017-09-28T03:29:52.878Z,1011.65
2017-09-28T03:30:33.382Z,1011.7
2017-09-28T03:31:13.844Z,1011.69
2017-09-28T03:31:54.318Z,1011.71
2017-09-28T03:32:35.166Z,1011.7
2017-09-28T03:33:15.659Z,1011.71
2017-09-28T03:33:56.084Z,1011.7
2017-09-28T03:34:36.508Z,1011.71
2017-09-28T03:35:16.978Z,1011.71
2017-09-28T03:35:57.480Z,1011.74
2017-09-28T03:36:37.940Z,1011.7
2017-09-28T03:37:19.281Z,1011.73
2017-09-28T03:37:59.758Z,1011.72
2017-09-28T03:38:40.187Z,1011.73
2017-09-28T03:39:20.650Z,1011.7
2017-09-28T03:40:01.138Z,1011.71
2017-09-28T03:40:41.560Z,1011.71
2017-09-28T03:41:21.998Z,1011.73
2017-09-28T03:42:02.547Z,1011.69
2017-09-28T03:42:42.996Z,1011.7
2017-09-28T03:43:23.455Z,1011.69
2017-09-28T03:44:03.882Z,1011.71
2017-09-28T03:44:44.438Z,1011.72
2017-09-28T03:45:24.835Z,1011.73
2017-09-28T03:46:05.289Z,1011.73
2017-09-28T03:46:45.729Z,1011.71
2017-09-28T03:47:26.206Z,1011.73
2017-09-28T03:49:39.033Z,1011.67
2017-09-28T03:50:19.552Z,1011.66
2017-09-28T03:51:00.013Z,1011.66
2017-09-28T03:51:40.495Z,1011.65
2017-09-28T03:52:20.973Z,1011.71
2017-09-28T03:53:01.458Z,1011.65
2017-09-28T03:53:41.950Z,1011.68
2017-09-28T03:54:22.412Z,1011.66
2017-09-28T03:55:02.919Z,1011.62
2017-09-28T03:55:43.401Z,1011.66
2017-09-28T03:56:23.885Z,1011.65
2017-09-28T03:57:04.380Z,1011.65
2017-09-28T03:57:44.874Z,1011.64
2017-09-28T03:58:25.351Z,1011.62
2017-09-28T03:59:05.837Z,1011.64
2017-09-28T03:59:47.142Z,1011.65
2017-09-28T04:00:27.568Z,1011.64
2017-09-28T04:01:08.054Z,1011.66
2017-09-28T04:01:48.543Z,1011.61
2017-09-28T04:02:28.983Z,1011.64
2017-09-28T04:03:09.390Z,1011.67
2017-09-28T04:03:49.848Z,1011.66
2017-09-28T04:04:30.300Z,1011.66
2017-09-28T04:05:10.766Z,1011.69
2017-09-28T04:05:51.216Z,1011.69
2017-09-28T04:06:31.683Z,1011.69
2017-09-28T04:07:12.747Z,1011.64
2017-09-28T04:07:53.188Z,1011.65
2017-09-28T04:08:33.666Z,1011.63
2017-09-28T04:11:01.593Z,1011.69
2017-09-28T04:11:42.104Z,1011.68
2017-09-28T04:12:22.595Z,1011.66
2017-09-28T04:13:03.092Z,1011.68
2017-09-28T04:13:43.572Z,1011.66
2017-09-28T04:14:24.037Z,1011.63
2017-09-28T04:15:04.506Z,1011.62
2017-09-28T04:15:44.961Z,1011.61
2017-09-28T04:18:12.886Z,1011.63
2017-09-28T04:18:53.466Z,1011.61
2017-09-28T04:19:33.953Z,1011.63
2017-09-28T04:20:14.486Z,1011.67
2017-09-28T04:20:54.972Z,1011.66
2017-09-28T04:21:35.441Z,1011.67
2017-09-28T04:22:15.925Z,1011.68
2017-09-28T04:22:56.396Z,1011.63
2017-09-28T04:23:36.870Z,1011.64
2017-09-28T04:24:17.381Z,1011.64
2017-09-28T04:24:57.844Z,1011.63
2017-09-28T04:25:38.320Z,1011.58
2017-09-28T04:26:18.842Z,1011.58
2017-09-28T04:28:36.634Z,1011.59
2017-09-28T04:29:17.117Z,1011.56
2017-09-28T04:29:57.596Z,1011.6
2017-09-28T04:30:38.062Z,1011.61
2017-09-28T04:31:18.561Z,1011.61
2017-09-28T04:31:59.026Z,1011.6
2017-09-28T04:32:39.489Z,1011.62
2017-09-28T04:33:19.922Z,1011.59
2017-09-28T04:34:00.390Z,1011.57
2017-09-28T04:35:58.135Z,1011.64
2017-09-28T04:36:38.572Z,1011.62
2017-09-28T04:37:19.240Z,1011.65
2017-09-28T04:37:59.708Z,1011.64
2017-09-28T04:40:27.670Z,1011.63
2017-09-28T04:41:08.169Z,1011.61
2017-09-28T04:41:48.713Z,1011.63
2017-09-28T04:42:29.361Z,1011.62
2017-09-28T04:43:09.881Z,1011.67
2017-09-28T04:43:50.334Z,1011.62
2017-09-28T04:44:30.844Z,1011.64
2017-09-28T04:45:11.359Z,1011.59
2017-09-28T04:45:51.768Z,1011.58
2017-09-28T04:46:32.261Z,1011.59
2017-09-28T04:47:12.688Z,1011.58
2017-09-28T04:47:53.156Z,1011.6
2017-09-28T04:48:33.606Z,1011.61
2017-09-28T04:49:14.042Z,1011.57
2017-09-28T04:49:54.488Z,1011.61
2017-09-28T04:50:34.975Z,1011.6
2017-09-28T04:51:15.458Z,1011.6
2017-09-28T04:51:55.887Z,1011.65
2017-09-28T04:52:36.351Z,1011.62
2017-09-28T04:53:16.797Z,1011.63
2017-09-28T04:53:57.287Z,1011.66
2017-09-28T04:54:37.725Z,1011.61
2017-09-28T04:55:18.168Z,1011.65
2017-09-28T04:55:58.602Z,1011.64
2017-09-28T04:56:39.099Z,1011.63
2017-09-28T04:57:19.621Z,1011.63
2017-09-28T04:59:47.561Z,1011.67
2017-09-28T05:00:28.013Z,1011.63
2017-09-28T05:01:08.524Z,1011.65
2017-09-28T05:01:49.015Z,1011.62
2017-09-28T05:02:29.514Z,1011.69
2017-09-28T05:03:10.059Z,1011.67
2017-09-28T05:03:50.472Z,1011.66
2017-09-28T05:04:30.882Z,1011.67
2017-09-28T05:08:16.125Z,1011.7
2017-09-28T05:08:56.602Z,1011.69
2017-09-28T05:09:37.044Z,1011.72
2017-09-28T05:12:05.066Z,1011.77
2017-09-28T05:12:45.538Z,1011.78
2017-09-28T05:13:25.970Z,1011.8
2017-09-28T05:14:06.455Z,1011.8
2017-09-28T05:14:47.828Z,1011.81
2017-09-28T05:15:28.228Z,1011.79
2017-09-28T05:16:08.702Z,1011.81
2017-09-28T05:16:49.196Z,1011.85
2017-09-28T05:17:29.617Z,1011.85
2017-09-28T05:19:27.239Z,1011.85
2017-09-28T05:20:07.708Z,1011.86
2017-09-28T05:20:48.207Z,1011.86
2017-09-28T05:21:28.683Z,1011.86
2017-09-28T05:22:09.184Z,1011.89
2017-09-28T05:22:49.671Z,1011.86
2017-09-28T05:23:30.134Z,1011.89
2017-09-28T05:24:10.572Z,1011.87
2017-09-28T05:24:51.048Z,1011.9
2017-09-28T05:25:31.551Z,1011.9
2017-09-28T05:26:11.980Z,1011.91
2017-09-28T05:26:52.446Z,1011.9
2017-09-28T05:27:32.909Z,1011.89
2017-09-28T05:28:13.354Z,1011.91
2017-09-28T05:28:53.814Z,1011.93
2017-09-28T05:29:34.268Z,1011.93
2017-09-28T05:30:14.720Z,1011.91
2017-09-28T05:30:55.168Z,1011.93
2017-09-28T05:31:35.606Z,1011.93
2017-09-28T05:32:16.089Z,1011.94
2017-09-28T05:34:28.779Z,1011.96
2017-09-28T05:35:09.255Z,1011.99
2017-09-28T05:35:49.747Z,1011.99
2017-09-28T05:36:30.256Z,1011.98
2017-09-28T05:37:10.713Z,1012
2017-09-28T05:37:51.197Z,1012
2017-09-28T05:38:31.668Z,1011.99
2017-09-28T05:39:12.130Z,1012.06
2017-09-28T05:41:04.685Z,1012.01
2017-09-28T05:41:45.168Z,1012.06
2017-09-28T05:42:25.733Z,1012.08
2017-09-28T05:43:06.254Z,1012.07
2017-09-28T05:43:46.727Z,1012.07
2017-09-28T05:44:27.218Z,1012.08
2017-09-28T05:45:07.780Z,1012.08
2017-09-28T05:45:48.289Z,1012.08
2017-09-28T05:46:28.874Z,1012.1
2017-09-28T05:47:09.282Z,1012.06
2017-09-28T05:47:49.796Z,1012.09
2017-09-28T05:48:30.374Z,1012.07
2017-09-28T05:49:10.825Z,1012.07
2017-09-28T05:49:51.289Z,1012.07
2017-09-28T05:50:31.754Z,1012.08
2017-09-28T05:51:12.261Z,1012.08
2017-09-28T05:51:52.777Z,1012.1
2017-09-28T05:52:33.262Z,1012.1
2017-09-28T05:53:13.714Z,1012.15
2017-09-28T05:53:54.198Z,1012.12
2017-09-28T05:54:34.613Z,1012.12
2017-09-28T05:55:15.041Z,1012.14
2017-09-28T05:55:55.557Z,1012.12
2017-09-28T05:58:09.164Z,1012.16
2017-09-28T05:58:49.647Z,1012.15
2017-09-28T05:59:30.107Z,1012.14
2017-09-28T06:00:10.569Z,1012.15
2017-09-28T06:00:51.065Z,1012.15
2017-09-28T06:01:31.555Z,1012.2
2017-09-28T06:02:12.038Z,1012.2
2017-09-28T06:02:52.503Z,1012.17
2017-09-28T06:03:32.964Z,1012.21
2017-09-28T06:04:13.419Z,1012.17
2017-09-28T06:04:53.902Z,1012.19
2017-09-28T06:05:34.378Z,1012.18
2017-09-28T06:06:14.839Z,1012.21
2017-09-28T06:06:55.328Z,1012.21
2017-09-28T06:07:35.770Z,1012.21
2017-09-28T06:08:16.244Z,1012.21
2017-09-28T06:08:56.710Z,1012.2
2017-09-28T06:09:37.163Z,1012.23
2017-09-28T06:10:17.667Z,1012.22
2017-09-28T06:10:58.143Z,1012.22
2017-09-28T06:11:38.575Z,1012.19
2017-09-28T06:12:19.005Z,1012.2
2017-09-28T06:12:59.470Z,1012.24
2017-09-28T06:13:39.934Z,1012.25
2017-09-28T06:14:20.385Z,1012.25
2017-09-28T06:15:00.823Z,1012.28
2017-09-28T06:15:41.298Z,1012.28
2017-09-28T06:16:21.858Z,1012.29
2017-09-28T06:18:19.504Z,1012.33
2017-09-28T06:19:00.011Z,1012.29
2017-09-28T06:19:40.492Z,1012.29
2017-09-28T06:20:21.018Z,1012.31
2017-09-28T06:21:01.462Z,1012.32
2017-09-28T06:21:41.949Z,1012.29
2017-09-28T06:22:22.426Z,1012.33
2017-09-28T06:23:03.845Z,1012.37
2017-09-28T06:23:44.300Z,1012.38
2017-09-28T06:24:24.783Z,1012.39
2017-09-28T06:25:05.245Z,1012.41
2017-09-28T06:25:45.726Z,1012.45
2017-09-28T06:26:26.197Z,1012.45
2017-09-28T06:27:06.658Z,1012.43
2017-09-28T06:29:04.300Z,1012.46
2017-09-28T06:29:44.734Z,1012.42
2017-09-28T06:30:25.223Z,1012.43
2017-09-28T06:31:05.680Z,1012.4
2017-09-28T06:31:46.145Z,1012.4
2017-09-28T06:32:26.674Z,1012.38
2017-09-28T06:33:07.042Z,1012.37
2017-09-28T06:34:59.919Z,1012.44
2017-09-28T06:35:40.391Z,1012.46
2017-09-28T06:36:20.890Z,1012.47
2017-09-28T06:37:01.377Z,1012.48
2017-09-28T06:37:41.848Z,1012.48
2017-09-28T06:38:22.244Z,1012.5
2017-09-28T06:39:02.710Z,1012.47
2017-09-28T06:39:43.179Z,1012.51
2017-09-28T06:40:23.640Z,1012.5
2017-09-28T06:42:41.493Z,1012.6
2017-09-28T06:43:21.956Z,1012.59
2017-09-28T06:45:49.854Z,1012.69
2017-09-28T06:46:31.450Z,1012.65
2017-09-28T06:47:11.929Z,1012.65
2017-09-28T06:47:52.355Z,1012.63
2017-09-28T06:48:32.860Z,1012.61
2017-09-28T06:49:13.346Z,1012.6
2017-09-28T06:49:53.818Z,1012.59
2017-09-28T06:50:34.305Z,1012.61
2017-09-28T06:51:14.850Z,1012.59
2017-09-28T06:51:56.331Z,1012.6
2017-09-28T06:52:35.925Z,1012.61
2017-09-28T06:53:16.519Z,1012.62
2017-09-28T06:53:56.992Z,1012.66
2017-09-28T06:54:37.461Z,1012.65
2017-09-28T06:55:17.993Z,1012.68
2017-09-28T06:55:58.455Z,1012.66
2017-09-28T06:56:38.926Z,1012.73
2017-09-28T06:57:19.433Z,1012.75
2017-09-28T06:57:59.896Z,1012.75
2017-09-28T06:58:40.407Z,1012.76
2017-09-28T06:59:20.961Z,1012.81
2017-09-28T07:00:01.661Z,1012.8
2017-09-28T07:00:42.029Z,1012.81
2017-09-28T07:01:23.185Z,1012.81
2017-09-28T07:02:04.652Z,1012.78
2017-09-28T07:02:45.761Z,1012.8
2017-09-28T07:03:27.175Z,1012.82
2017-09-28T07:04:07.985Z,1012.77
2017-09-28T07:04:48.476Z,1012.76
2017-09-28T07:05:28.936Z,1012.8
2017-09-28T07:06:09.417Z,1012.82
2017-09-28T07:08:07.181Z,1012.85
2017-09-28T07:08:47.616Z,1012.89
2017-09-28T07:09:28.066Z,1012.9
2017-09-28T07:10:08.521Z,1012.94
2017-09-28T07:10:48.967Z,1012.94
2017-09-28T07:11:30.295Z,1012.94
2017-09-28T07:12:10.759Z,1012.97
2017-09-28T07:12:51.229Z,1012.95
2017-09-28T07:13:31.691Z,1012.99
2017-09-28T07:15:59.719Z,1013
2017-09-28T07:16:40.156Z,1012.99
2017-09-28T07:17:20.663Z,1012.99
2017-09-28T07:18:01.092Z,1013.01
2017-09-28T07:18:41.590Z,1013.01
2017-09-28T07:19:22.043Z,1013
2017-09-28T07:20:02.493Z,1012.99
2017-09-28T07:20:43.011Z,1012.98
2017-09-28T07:21:23.453Z,1013.01
2017-09-28T07:22:03.957Z,1013.03
2017-09-28T07:22:44.461Z,1013.04
2017-09-28T07:23:24.948Z,1013.04
2017-09-28T07:24:05.521Z,1013
2017-09-28T07:24:45.980Z,1013.02
2017-09-28T07:25:26.485Z,1013.02
2017-09-28T07:26:06.943Z,1012.99
2017-09-28T07:26:47.427Z,1012.96
2017-09-28T07:27:28.053Z,1012.96
2017-09-28T07:28:08.562Z,1012.94
2017-09-28T07:28:49.074Z,1012.97
2017-09-28T07:29:29.468Z,1012.94
2017-09-28T07:30:09.949Z,1012.99
2017-09-28T07:30:50.397Z,1012.99
2017-09-28T07:31:30.840Z,1013.01
2017-09-28T07:32:11.440Z,1013.04
2017-09-28T07:32:52.071Z,1013.06
2017-09-28T07:33:32.604Z,1013.03
2017-09-28T07:34:13.256Z,1013.04
2017-09-28T07:34:53.881Z,1013.03
2017-09-28T07:35:34.471Z,1013.07
2017-09-28T07:36:15.080Z,1013.07
2017-09-28T07:36:55.710Z,1013.05
2017-09-28T07:37:36.276Z,1013.09
2017-09-28T07:38:16.788Z,1013.07
2017-09-28T07:38:57.344Z,1013.06
2017-09-28T07:39:37.803Z,1013.08
2017-09-28T07:40:18.317Z,1013.09
2017-09-28T07:40:58.890Z,1013.05
2017-09-28T07:41:39.493Z,1013.01
2017-09-28T07:42:20.206Z,1013.02
2017-09-28T07:43:00.823Z,1013.06
2017-09-28T07:43:41.684Z,1013.03
2017-09-28T07:44:22.188Z,1013.04
2017-09-28T07:45:02.669Z,1013.04
2017-09-28T07:45:43.151Z,1013
2017-09-28T07:46:23.783Z,1012.98
2017-09-28T07:47:04.275Z,1013
2017-09-28T07:47:44.820Z,1012.98
2017-09-28T07:48:25.327Z,1012.98
2017-09-28T07:49:05.758Z,1012.96
2017-09-28T07:49:46.343Z,1012.94
2017-09-28T07:50:26.954Z,1012.96
2017-09-28T07:51:07.504Z,1012.95
2017-09-28T07:51:47.977Z,1012.95
2017-09-28T07:52:28.506Z,1012.93
2017-09-28T07:53:09.203Z,1012.94
2017-09-28T07:53:49.692Z,1012.88
2017-09-28T07:54:30.245Z,1012.91
2017-09-28T07:55:10.912Z,1012.89
2017-09-28T07:55:51.541Z,1012.89
2017-09-28T07:56:32.187Z,1012.87
2017-09-28T07:57:12.651Z,1012.86
2017-09-28T07:57:53.159Z,1012.86
2017-09-28T07:58:33.885Z,1012.93
2017-09-28T07:59:14.475Z,1012.95
2017-09-28T07:59:55.018Z,1012.95
2017-09-28T08:00:35.483Z,1012.95
2017-09-28T08:01:16.001Z,1012.98
2017-09-28T08:01:56.415Z,1012.93
2017-09-28T08:02:36.911Z,1012.92
2017-09-28T08:03:17.368Z,1012.94
2017-09-28T08:03:57.852Z,1012.94
2017-09-28T08:04:38.385Z,1012.93
2017-09-28T08:05:18.869Z,1012.95
2017-09-28T08:05:59.453Z,1012.96
2017-09-28T08:06:39.915Z,1012.98
2017-09-28T08:07:20.378Z,1012.96
2017-09-28T08:08:00.939Z,1013
2017-09-28T08:08:41.516Z,1012.94
2017-09-28T08:09:21.850Z,1012.99
2017-09-28T08:10:02.532Z,1012.97
2017-09-28T08:10:43.137Z,1012.95
2017-09-28T08:11:23.598Z,1013
2017-09-28T08:12:04.178Z,1013
2017-09-28T08:12:44.754Z,1013.01
2017-09-28T08:13:25.266Z,1013.02
2017-09-28T08:14:05.865Z,1013.08
2017-09-28T08:14:46.317Z,1013.09
2017-09-28T08:15:26.848Z,1013.1
2017-09-28T08:16:07.320Z,1013.08
2017-09-28T08:16:47.767Z,1013.05
2017-09-28T08:17:28.299Z,1013.09
2017-09-28T08:18:09.090Z,1013.1
2017-09-28T08:18:49.819Z,1013.13
2017-09-28T08:19:30.244Z,1013.12
2017-09-28T08:20:10.679Z,1013.13
2017-09-28T08:20:51.227Z,1013.12
2017-09-28T08:21:32.009Z,1013.11
2017-09-28T08:22:12.649Z,1013.08
2017-09-28T08:22:53.272Z,1013.07
2017-09-28T08:23:33.692Z,1013.1
2017-09-28T08:24:14.359Z,1013.08
2017-09-28T08:24:54.910Z,1013.03
2017-09-28T08:25:35.569Z,1013.05
2017-09-28T08:26:17.057Z,1013.07
2017-09-28T08:26:57.711Z,1013.1
2017-09-28T08:27:38.323Z,1013.14
2017-09-28T08:28:18.837Z,1013.12
2017-09-28T08:28:59.355Z,1013.11
2017-09-28T08:29:39.875Z,1013.15
2017-09-28T08:30:20.360Z,1013.06
2017-09-28T08:31:01.102Z,1013.11
2017-09-28T08:31:41.746Z,1013.11
2017-09-28T08:32:22.224Z,1013.14
2017-09-28T08:33:02.757Z,1013.14
2017-09-28T08:33:43.260Z,1013.15
2017-09-28T08:34:23.790Z,1013.19
2017-09-28T08:35:04.436Z,1013.24
2017-09-28T08:35:44.994Z,1013.22
2017-09-28T08:36:25.436Z,1013.23
2017-09-28T08:37:06.018Z,1013.2
2017-09-28T08:37:46.485Z,1013.22
2017-09-28T08:38:27.061Z,1013.21
2017-09-28T08:39:07.622Z,1013.25
2017-09-28T08:39:48.174Z,1013.29
2017-09-28T08:40:28.859Z,1013.29
2017-09-28T08:41:09.375Z,1013.3
2017-09-28T08:41:49.965Z,1013.37
2017-09-28T08:42:30.568Z,1013.38
2017-09-28T08:43:11.092Z,1013.41
2017-09-28T08:43:51.681Z,1013.48
2017-09-28T08:44:32.233Z,1013.51
2017-09-28T08:45:12.935Z,1013.54
2017-09-28T08:45:53.366Z,1013.65
2017-09-28T08:46:33.867Z,1013.77